Time;durP1;ratioP1;P1;durP2;ratioP2;P2;SDS_P1;SDS_P2;PMS_P1;PMS_P2;Temp;Humidity;BMP_temperature;BMP_pressure;BME280_temperature;BME280_humidity;BME280_pressure;Samples;Min_cycle;Max_cycle;Signal;HPM_P1;HPM_P2
2023/06/16 00:00:37;;;;;;;0.10;0.10;;;;;;;;;;5113296;27;20039;-47
2023/06/16 00:03:03;;;;;;;0.10;0.10;;;;;;;;;;5133929;27;20580;-46
2023/06/16 00:05:29;;;;;;;0.10;0.10;;;;;;;;;;5115057;27;20053;-47
2023/06/16 00:07:59;;;;;;;0.20;0.20;;;;;;;;;;5135237;27;20316;-47
2023/06/16 00:10:24;;;;;;;0.10;0.10;;;;;;;;;;5138387;27;20062;-47
2023/06/16 00:12:50;;;;;;;0.10;0.10;;;;;;;;;;5136726;27;20042;-47
2023/06/16 00:15:16;;;;;;;0.10;0.10;;;;;;;;;;5118871;27;20468;-47
2023/06/16 00:17:46;;;;;;;0.10;0.10;;;;;;;;;;5137257;27;20046;-47
2023/06/16 00:20:14;;;;;;;0.20;0.20;;;;;;;;;;5130906;27;20055;-47
2023/06/16 00:22:41;;;;;;;0.10;0.10;;;;;;;;;;5135406;27;20043;-47
2023/06/16 00:25:08;;;;;;;0.10;0.10;;;;;;;;;;5118927;27;20071;-47
2023/06/16 00:27:33;;;;;;;0.10;0.10;;;;;;;;;;5136888;27;20315;-47
2023/06/16 00:29:59;;;;;;;0.10;0.10;;;;;;;;;;5137096;27;20455;-46
2023/06/16 00:32:24;;;;;;;0.10;0.10;;;;;;;;;;5137174;27;20478;-46
2023/06/16 00:34:50;;;;;;;0.10;0.10;;;;;;;;;;5137100;27;20039;-48
2023/06/16 00:37:16;;;;;;;0.10;0.10;;;;;;;;;;5136858;27;20043;-46
2023/06/16 00:39:41;;;;;;;0.10;0.10;;;;;;;;;;5135632;27;20068;-47
2023/06/16 00:42:08;;;;;;;0.10;0.10;;;;;;;;;;5137057;27;20047;-47
2023/06/16 00:44:33;;;;;;;0.10;0.10;;;;;;;;;;5136602;27;20089;-47
2023/06/16 00:46:59;;;;;;;0.10;0.10;;;;;;;;;;5136086;27;20130;-46
2023/06/16 00:49:25;;;;;;;0.10;0.10;;;;;;;;;;5137266;27;20046;-47
2023/06/16 00:51:51;;;;;;;0.10;0.10;;;;;;;;;;5125862;27;20536;-46
2023/06/16 00:54:16;;;;;;;0.10;0.10;;;;;;;;;;5116048;28;20400;-48
2023/06/16 00:56:43;;;;;;;0.10;0.10;;;;;;;;;;5116486;28;20517;-47
2023/06/16 00:59:08;;;;;;;0.10;0.10;;;;;;;;;;5097795;28;20043;-47
2023/06/16 01:01:34;;;;;;;0.10;0.10;;;;;;;;;;5133467;27;20149;-47
2023/06/16 01:04:00;;;;;;;0.10;0.10;;;;;;;;;;5136591;27;20103;-47
2023/06/16 01:06:35;;;;;;;0.10;0.10;;;;;;;;;;5136802;27;20051;-46
2023/06/16 01:09:08;;;;;;;0.10;0.10;;;;;;;;;;5136474;27;20047;-47
2023/06/16 01:11:39;;;;;;;0.10;0.10;;;;;;;;;;5124976;27;20061;-46
2023/06/16 01:14:12;;;;;;;0.10;0.10;;;;;;;;;;5136535;27;20518;-47
2023/06/16 01:16:41;;;;;;;0.10;0.10;;;;;;;;;;5136675;27;20046;-47
2023/06/16 01:19:08;;;;;;;0.10;0.10;;;;;;;;;;5135949;27;20043;-46
2023/06/16 01:21:51;;;;;;;0.10;0.10;;;;;;;;;;5125226;27;20046;-46
2023/06/16 01:24:18;;;;;;;0.10;0.10;;;;;;;;;;5136454;27;20185;-47
2023/06/16 01:26:46;;;;;;;0.10;0.10;;;;;;;;;;5136095;27;20050;-48
2023/06/16 01:29:12;;;;;;;;;;;;;;;;;;5128147;27;20510;-47
2023/06/16 01:31:38;;;;;;;0.10;0.10;;;;;;;;;;5125195;27;20084;-47
2023/06/16 01:34:05;;;;;;;0.10;0.10;;;;;;;;;;5117375;27;20046;-46
2023/06/16 01:36:31;;;;;;;0.10;0.10;;;;;;;;;;5136510;27;20046;-48
2023/06/16 01:39:00;;;;;;;0.20;0.20;;;;;;;;;;5135405;27;20101;-47
2023/06/16 01:41:26;;;;;;;0.10;0.10;;;;;;;;;;5113295;28;20090;-47
2023/06/16 01:43:52;;;;;;;0.10;0.10;;;;;;;;;;5114852;27;20043;-47
2023/06/16 01:46:18;;;;;;;0.10;0.10;;;;;;;;;;5115661;27;20081;-47
2023/06/16 01:48:44;;;;;;;0.10;0.10;;;;;;;;;;5117666;27;20073;-47
2023/06/16 01:51:10;;;;;;;0.10;0.10;;;;;;;;;;5134644;27;20042;-47
2023/06/16 01:53:35;;;;;;;0.10;0.10;;;;;;;;;;5151670;27;20050;-48
2023/06/16 01:56:01;;;;;;;0.10;0.10;;;;;;;;;;5156692;27;20054;-47
2023/06/16 01:58:27;;;;;;;0.10;0.10;;;;;;;;;;5156823;27;20053;-48
2023/06/16 02:00:56;;;;;;;0.10;0.10;;;;;;;;;;5132238;27;20239;-48
2023/06/16 02:03:26;;;;;;;0.10;0.10;;;;;;;;;;5096486;28;20039;-48
2023/06/16 02:05:53;;;;;;;0.10;0.10;;;;;;;;;;5097013;28;20111;-47
2023/06/16 02:08:21;;;;;;;0.10;0.10;;;;;;;;;;5115071;28;20050;-47
2023/06/16 02:10:46;;;;;;;0.10;0.10;;;;;;;;;;5125977;27;20523;-47
2023/06/16 02:13:12;;;;;;;0.10;0.10;;;;;;;;;;5135310;27;20513;-46
2023/06/16 02:15:38;;;;;;;0.10;0.10;;;;;;;;;;5135072;27;20056;-46
2023/06/16 02:18:03;;;;;;;0.10;0.10;;;;;;;;;;5136111;27;20046;-47
2023/06/16 02:20:29;;;;;;;0.10;0.10;;;;;;;;;;5135286;27;20078;-47
2023/06/16 02:22:55;;;;;;;0.10;0.10;;;;;;;;;;5116399;27;20266;-47
2023/06/16 02:25:20;;;;;;;0.10;0.10;;;;;;;;;;5135532;27;20046;-47
2023/06/16 02:27:47;;;;;;;0.10;0.10;;;;;;;;;;5135560;27;20035;-48
2023/06/16 02:30:12;;;;;;;0.13;0.13;;;;;;;;;;5115281;27;20579;-47
2023/06/16 02:32:39;;;;;;;0.10;0.10;;;;;;;;;;5134855;27;20043;-47
2023/06/16 02:35:18;;;;;;;0.10;0.10;;;;;;;;;;5134488;27;20501;-47
2023/06/16 02:37:50;;;;;;;0.10;0.10;;;;;;;;;;5135159;27;20038;-47
2023/06/16 02:40:15;;;;;;;0.10;0.10;;;;;;;;;;5135310;27;20534;-47
2023/06/16 02:42:41;;;;;;;0.10;0.10;;;;;;;;;;5135061;27;20050;-47
2023/06/16 02:45:07;;;;;;;0.10;0.10;;;;;;;;;;5134748;27;20268;-51
2023/06/16 02:47:33;;;;;;;0.10;0.10;;;;;;;;;;5135280;27;20430;-47
2023/06/16 02:49:58;;;;;;;0.10;0.10;;;;;;;;;;5132800;27;20047;-48
2023/06/16 02:52:25;;;;;;;0.10;0.10;;;;;;;;;;5131844;27;20134;-48
2023/06/16 02:54:50;;;;;;;0.10;0.10;;;;;;;;;;5135098;27;20046;-50
2023/06/16 02:57:16;;;;;;;0.10;0.10;;;;;;;;;;5135555;27;20050;-49
2023/06/16 02:59:41;;;;;;;0.10;0.10;;;;;;;;;;5134996;27;20038;-50
2023/06/16 03:02:07;;;;;;;0.10;0.10;;;;;;;;;;5134501;27;20414;-49
2023/06/16 03:04:34;;;;;;;0.10;0.10;;;;;;;;;;5133921;27;20121;-48
2023/06/16 03:07:02;;;;;;;0.10;0.10;;;;;;;;;;5134754;27;20050;-49
2023/06/16 03:09:28;;;;;;;0.10;0.10;;;;;;;;;;5116893;27;20078;-49
2023/06/16 03:11:54;;;;;;;0.10;0.10;;;;;;;;;;5134010;27;20414;-48
2023/06/16 03:14:21;;;;;;;0.10;0.10;;;;;;;;;;5115729;27;20051;-48
2023/06/16 03:16:48;;;;;;;0.10;0.10;;;;;;;;;;5116214;27;20043;-51
2023/06/16 03:19:14;;;;;;;0.10;0.10;;;;;;;;;;5135109;27;20069;-48
2023/06/16 03:21:40;;;;;;;0.10;0.10;;;;;;;;;;5133928;27;20054;-50
2023/06/16 03:24:06;;;;;;;0.10;0.10;;;;;;;;;;5134641;27;20047;-47
2023/06/16 03:26:34;;;;;;;0.10;0.10;;;;;;;;;;5134594;27;20046;-48
2023/06/16 03:29:00;;;;;;;0.10;0.10;;;;;;;;;;5134662;27;20042;-51
2023/06/16 03:31:26;;;;;;;0.10;0.10;;;;;;;;;;5134316;27;20046;-49
2023/06/16 03:33:51;;;;;;;0.10;0.10;;;;;;;;;;5134469;27;20483;-48
2023/06/16 03:36:18;;;;;;;0.10;0.10;;;;;;;;;;5134535;27;20136;-49
2023/06/16 03:38:43;;;;;;;0.10;0.10;;;;;;;;;;5133928;27;20065;-49
2023/06/16 03:41:09;;;;;;;0.10;0.10;;;;;;;;;;5134697;27;20142;-49
2023/06/16 03:43:34;;;;;;;0.10;0.10;;;;;;;;;;5133565;27;20130;-49
2023/06/16 03:46:00;;;;;;;0.10;0.10;;;;;;;;;;5134900;27;20417;-52
2023/06/16 03:48:26;;;;;;;0.10;0.10;;;;;;;;;;5138127;27;20297;-47
2023/06/16 03:50:52;;;;;;;0.10;0.10;;;;;;;;;;5130622;27;20422;-48
2023/06/16 03:53:19;;;;;;;0.10;0.10;;;;;;;;;;5136862;27;20407;-51
2023/06/16 03:55:45;;;;;;;0.10;0.10;;;;;;;;;;5137962;27;20054;-50
2023/06/16 03:58:13;;;;;;;0.10;0.10;;;;;;;;;;5137905;27;20047;-49
2023/06/16 04:00:38;;;;;;;0.10;0.10;;;;;;;;;;5126489;27;20078;-51
2023/06/16 04:03:04;;;;;;;0.20;0.20;;;;;;;;;;5131488;27;20046;-48
2023/06/16 04:05:31;;;;;;;0.10;0.10;;;;;;;;;;5119347;27;20133;-49
2023/06/16 04:07:57;;;;;;;0.10;0.10;;;;;;;;;;5137408;27;20050;-48
2023/06/16 04:10:22;;;;;;;0.10;0.10;;;;;;;;;;5129865;27;20117;-49
2023/06/16 04:12:48;;;;;;;0.10;0.10;;;;;;;;;;5128846;27;20110;-47
2023/06/16 04:15:13;;;;;;;0.10;0.10;;;;;;;;;;5137620;27;20058;-50
2023/06/16 04:17:40;;;;;;;0.10;0.10;;;;;;;;;;5137289;27;20050;-48
2023/06/16 04:20:09;;;;;;;0.10;0.10;;;;;;;;;;5132226;27;20074;-49
2023/06/16 04:22:35;;;;;;;0.10;0.10;;;;;;;;;;5126549;27;20054;-49
2023/06/16 04:25:00;;;;;;;0.10;0.10;;;;;;;;;;5137415;27;20163;-48
2023/06/16 04:27:28;;;;;;;0.15;0.15;;;;;;;;;;5136600;27;20047;-50
2023/06/16 04:29:54;;;;;;;0.10;0.10;;;;;;;;;;5132856;27;20086;-48
2023/06/16 04:32:20;;;;;;;0.20;0.20;;;;;;;;;;5124619;27;20039;-47
2023/06/16 04:34:46;;;;;;;0.10;0.10;;;;;;;;;;5136929;27;20043;-50
2023/06/16 04:37:13;;;;;;;0.10;0.10;;;;;;;;;;5137221;27;20053;-51
2023/06/16 04:39:40;;;;;;;0.10;0.10;;;;;;;;;;5134633;27;20132;-49
2023/06/16 04:42:08;;;;;;;0.10;0.10;;;;;;;;;;5121072;27;20100;-48
2023/06/16 04:44:34;;;;;;;0.63;0.30;;;;;;;;;;5136515;27;20046;-47
2023/06/16 04:47:00;;;;;;;0.10;0.10;;;;;;;;;;5136177;27;20148;-51
2023/06/16 04:49:25;;;;;;;0.10;0.10;;;;;;;;;;5136786;27;20089;-50
2023/06/16 04:51:51;;;;;;;0.20;0.20;;;;;;;;;;5126056;27;20039;-51
2023/06/16 04:54:18;;;;;;;0.10;0.10;;;;;;;;;;5136671;27;20057;-50
2023/06/16 04:56:45;;;;;;;0.10;0.10;;;;;;;;;;5136643;27;20085;-50
2023/06/16 04:59:11;;;;;;;0.10;0.10;;;;;;;;;;5118308;27;20053;-48
2023/06/16 05:01:36;;;;;;;0.10;0.10;;;;;;;;;;5134268;27;20043;-47
2023/06/16 05:04:02;;;;;;;0.10;0.10;;;;;;;;;;5106457;27;20134;-51
2023/06/16 05:06:28;;;;;;;0.10;0.10;;;;;;;;;;5130224;27;20090;-51
2023/06/16 05:08:54;;;;;;;0.10;0.10;;;;;;;;;;5135714;27;20043;-51
2023/06/16 05:11:19;;;;;;;0.10;0.10;;;;;;;;;;5130238;27;20418;-49
2023/06/16 05:13:45;;;;;;;0.10;0.10;;;;;;;;;;5136451;27;20905;-51
2023/06/16 05:16:11;;;;;;;0.10;0.10;;;;;;;;;;5135285;27;20174;-50
2023/06/16 05:18:37;;;;;;;0.28;0.28;;;;;;;;;;5135747;27;20047;-51
2023/06/16 05:21:02;;;;;;;0.10;0.10;;;;;;;;;;5125978;27;20447;-49
2023/06/16 05:23:28;;;;;;;0.10;0.10;;;;;;;;;;5110096;27;20051;-47
2023/06/16 05:25:53;;;;;;;0.30;0.30;;;;;;;;;;5133333;27;20070;-53
2023/06/16 05:28:19;;;;;;;0.10;0.10;;;;;;;;;;5132274;27;20047;-51
2023/06/16 05:30:45;;;;;;;0.10;0.10;;;;;;;;;;5106708;27;20480;-49
2023/06/16 05:33:10;;;;;;;0.10;0.10;;;;;;;;;;5122898;27;20054;-52
2023/06/16 05:35:36;;;;;;;0.20;0.20;;;;;;;;;;5106052;27;20134;-50
2023/06/16 05:38:02;;;;;;;0.10;0.10;;;;;;;;;;5115744;27;20047;-49
2023/06/16 05:40:27;;;;;;;0.10;0.10;;;;;;;;;;5134243;27;20044;-49
2023/06/16 05:42:53;;;;;;;0.10;0.10;;;;;;;;;;5129487;27;20086;-52
2023/06/16 05:45:19;;;;;;;0.10;0.10;;;;;;;;;;5125914;27;20077;-50
2023/06/16 05:47:44;;;;;;;0.10;0.10;;;;;;;;;;5098134;27;20084;-46
2023/06/16 05:50:10;;;;;;;0.10;0.10;;;;;;;;;;5127333;27;20072;-48
2023/06/16 05:52:35;;;;;;;0.10;0.10;;;;;;;;;;5093851;27;20517;-50
2023/06/16 05:55:01;;;;;;;0.10;0.10;;;;;;;;;;5118802;27;20054;-48
2023/06/16 05:57:27;;;;;;;0.10;0.10;;;;;;;;;;5123359;27;20077;-50
2023/06/16 05:59:53;;;;;;;0.10;0.10;;;;;;;;;;5111909;27;20058;-51
2023/06/16 06:02:19;;;;;;;0.10;0.10;;;;;;;;;;5115202;27;20390;-53
2023/06/16 06:04:45;;;;;;;0.10;0.10;;;;;;;;;;5116793;27;20130;-47
2023/06/16 06:07:11;;;;;;;0.10;0.10;;;;;;;;;;5114296;27;20034;-47
2023/06/16 06:09:36;;;;;;;0.10;0.10;;;;;;;;;;5120680;27;20054;-45
2023/06/16 06:12:02;;;;;;;0.10;0.10;;;;;;;;;;5119665;27;20095;-58
2023/06/16 06:14:28;;;;;;;0.20;0.20;;;;;;;;;;5124225;27;20104;-47
2023/06/16 06:16:53;;;;;;;0.10;0.10;;;;;;;;;;5130834;27;20060;-62
2023/06/16 06:19:19;;;;;;;0.10;0.10;;;;;;;;;;5119589;27;20039;-57
2023/06/16 06:21:45;;;;;;;0.10;0.10;;;;;;;;;;5119966;27;20471;-49
2023/06/16 06:24:10;;;;;;;0.10;0.10;;;;;;;;;;5122129;27;20054;-48
2023/06/16 06:26:38;;;;;;;0.10;0.10;;;;;;;;;;5117557;27;20062;-49
2023/06/16 06:29:04;;;;;;;0.10;0.10;;;;;;;;;;5123167;27;20865;-48
2023/06/16 06:31:32;;;;;;;0.10;0.10;;;;;;;;;;5116546;27;20047;-50
2023/06/16 06:33:58;;;;;;;0.10;0.10;;;;;;;;;;5122953;27;20050;-49
2023/06/16 06:36:25;;;;;;;0.10;0.10;;;;;;;;;;5110517;27;20157;-47
2023/06/16 06:38:50;;;;;;;0.10;0.10;;;;;;;;;;5114737;27;20434;-47
2023/06/16 06:41:17;;;;;;;0.10;0.10;;;;;;;;;;5121812;27;20892;-48
2023/06/16 06:43:43;;;;;;;0.10;0.10;;;;;;;;;;5113264;27;20073;-51
2023/06/16 06:46:08;;;;;;;0.10;0.10;;;;;;;;;;5111510;27;20047;-48
2023/06/16 06:48:34;;;;;;;0.10;0.10;;;;;;;;;;5112898;27;20142;-48
2023/06/16 06:50:59;;;;;;;0.10;0.10;;;;;;;;;;5108814;27;20113;-48
2023/06/16 06:53:25;;;;;;;0.10;0.10;;;;;;;;;;5107003;27;20046;-47
2023/06/16 06:55:50;;;;;;;0.10;0.10;;;;;;;;;;5112285;27;20519;-48
2023/06/16 06:58:16;;;;;;;0.10;0.10;;;;;;;;;;5102587;27;20061;-47
2023/06/16 07:00:41;;;;;;;0.10;0.10;;;;;;;;;;5106440;27;20051;-48
2023/06/16 07:03:07;;;;;;;0.10;0.10;;;;;;;;;;5106490;27;20077;-47
2023/06/16 07:05:34;;;;;;;0.10;0.10;;;;;;;;;;5106259;27;20315;-51
2023/06/16 07:08:01;;;;;;;0.10;0.10;;;;;;;;;;5092828;27;20051;-49
2023/06/16 07:10:29;;;;;;;0.10;0.10;;;;;;;;;;5110712;27;20115;-49
2023/06/16 07:12:55;;;;;;;;;;;;;;;;;;5101571;27;20804;-54
2023/06/16 07:15:20;;;;;;;0.10;0.10;;;;;;;;;;5114051;27;19930;-48
2023/06/16 07:17:46;;;;;;;0.22;0.22;;;;;;;;;;5105677;27;20491;-49
2023/06/16 07:20:13;;;;;;;0.10;0.10;;;;;;;;;;5109313;27;20038;-47
2023/06/16 07:22:39;;;;;;;0.10;0.10;;;;;;;;;;5092397;27;20050;-47
2023/06/16 07:25:05;;;;;;;0.10;0.10;;;;;;;;;;5095640;27;20053;-48
2023/06/16 07:27:31;;;;;;;0.10;0.10;;;;;;;;;;5116202;27;20055;-50
2023/06/16 07:29:56;;;;;;;0.10;0.10;;;;;;;;;;5115505;27;20555;-49
2023/06/16 07:32:22;;;;;;;0.10;0.10;;;;;;;;;;5114563;27;20046;-49
2023/06/16 07:34:47;;;;;;;0.10;0.10;;;;;;;;;;5111065;27;20036;-50
2023/06/16 07:37:13;;;;;;;0.10;0.10;;;;;;;;;;5110273;27;20100;-48
2023/06/16 07:39:39;;;;;;;0.10;0.10;;;;;;;;;;5105254;27;20551;-47
2023/06/16 07:42:05;;;;;;;0.10;0.10;;;;;;;;;;5108425;27;20051;-49
2023/06/16 07:44:31;;;;;;;0.10;0.10;;;;;;;;;;5116982;27;20147;-48
2023/06/16 07:46:56;;;;;;;0.10;0.10;;;;;;;;;;5113486;27;20072;-49
2023/06/16 07:49:22;;;;;;;0.10;0.10;;;;;;;;;;5119279;27;20093;-49
2023/06/16 07:51:48;;;;;;;0.10;0.10;;;;;;;;;;5117859;27;20050;-50
2023/06/16 07:54:14;;;;;;;0.10;0.10;;;;;;;;;;5120483;27;20445;-48
2023/06/16 07:56:40;;;;;;;0.10;0.10;;;;;;;;;;5116609;27;20043;-49
2023/06/16 07:59:06;;;;;;;0.10;0.10;;;;;;;;;;5121343;27;20153;-50
2023/06/16 08:01:31;;;;;;;0.10;0.10;;;;;;;;;;5125227;27;20066;-47
2023/06/16 08:03:57;;;;;;;0.10;0.10;;;;;;;;;;5110432;27;20076;-50
2023/06/16 08:06:23;;;;;;;0.10;0.10;;;;;;;;;;5109285;27;20528;-47
2023/06/16 08:08:49;;;;;;;0.10;0.10;;;;;;;;;;5109064;27;20214;-48
2023/06/16 08:11:14;;;;;;;0.10;0.10;;;;;;;;;;5104801;27;20038;-48
2023/06/16 08:13:40;;;;;;;0.10;0.10;;;;;;;;;;5114772;27;20051;-50
2023/06/16 08:16:06;;;;;;;0.10;0.10;;;;;;;;;;5111017;27;20542;-52
2023/06/16 08:18:31;;;;;;;0.10;0.10;;;;;;;;;;5106547;27;20039;-47
2023/06/16 08:20:57;;;;;;;0.10;0.10;;;;;;;;;;5118029;27;20081;-51
2023/06/16 08:23:23;;;;;;;0.10;0.10;;;;;;;;;;5100424;27;20075;-47
2023/06/16 08:25:50;;;;;;;0.10;0.10;;;;;;;;;;5095248;27;20115;-49
2023/06/16 08:28:15;;;;;;;0.10;0.10;;;;;;;;;;5122059;27;20047;-49
2023/06/16 08:30:41;;;;;;;0.20;0.13;;;;;;;;;;5115052;27;20035;-52
2023/06/16 08:33:08;;;;;;;0.10;0.10;;;;;;;;;;5116040;27;20125;-49
2023/06/16 08:35:33;;;;;;;0.10;0.10;;;;;;;;;;5118790;27;20047;-46
2023/06/16 08:37:59;;;;;;;0.10;0.10;;;;;;;;;;5107900;27;20055;-50
2023/06/16 08:40:24;;;;;;;0.10;0.10;;;;;;;;;;5105402;27;20759;-47
2023/06/16 08:42:50;;;;;;;0.10;0.10;;;;;;;;;;5112083;27;20043;-51
2023/06/16 08:45:17;;;;;;;0.10;0.10;;;;;;;;;;5116614;27;20091;-52
2023/06/16 08:47:43;;;;;;;0.10;0.10;;;;;;;;;;5119874;27;20065;-47
2023/06/16 08:50:09;;;;;;;0.10;0.10;;;;;;;;;;5112135;27;20708;-51
2023/06/16 08:52:37;;;;;;;0.20;0.20;;;;;;;;;;5117156;27;20047;-52
2023/06/16 08:55:11;;;;;;;0.10;0.10;;;;;;;;;;5122975;27;20051;-52
2023/06/16 08:57:40;;;;;;;0.10;0.10;;;;;;;;;;5106610;27;20281;-48
2023/06/16 09:00:09;;;;;;;0.10;0.10;;;;;;;;;;5118432;27;20106;-50
2023/06/16 09:02:36;;;;;;;0.10;0.10;;;;;;;;;;5121181;27;20051;-47
2023/06/16 09:05:04;;;;;;;0.10;0.10;;;;;;;;;;5115222;27;20138;-50
2023/06/16 09:07:29;;;;;;;0.13;0.13;;;;;;;;;;5120707;27;20070;-50
2023/06/16 09:09:55;;;;;;;0.20;0.20;;;;;;;;;;5108768;27;20054;-50
2023/06/16 09:12:21;;;;;;;0.10;0.10;;;;;;;;;;5119412;27;20055;-50
2023/06/16 09:14:49;;;;;;;0.10;0.10;;;;;;;;;;5126027;27;20602;-51
2023/06/16 09:17:18;;;;;;;0.10;0.10;;;;;;;;;;5120430;27;20212;-48
2023/06/16 09:19:47;;;;;;;;;;;;;;;;;;5121711;27;20035;-49
2023/06/16 09:22:16;;;;;;;0.10;0.10;;;;;;;;;;5109391;27;19922;-52
2023/06/16 09:24:42;;;;;;;0.10;0.10;;;;;;;;;;5114408;27;20217;-48
2023/06/16 09:27:08;;;;;;;0.10;0.10;;;;;;;;;;5125060;27;20106;-50
2023/06/16 09:29:33;;;;;;;0.10;0.10;;;;;;;;;;5114105;27;20096;-51
2023/06/16 09:32:09;;;;;;;0.10;0.10;;;;;;;;;;5110712;27;20093;-49
2023/06/16 09:34:35;;;;;;;0.10;0.10;;;;;;;;;;5112089;27;20051;-51
2023/06/16 09:37:03;;;;;;;0.10;0.10;;;;;;;;;;5105961;27;20414;-51
2023/06/16 09:39:29;;;;;;;;;;;;;;;;;;5104291;27;20502;-49
2023/06/16 09:41:56;;;;;;;0.10;0.10;;;;;;;;;;5113473;27;19970;-51
2023/06/16 09:44:23;;;;;;;0.10;0.10;;;;;;;;;;5106094;27;20042;-50
2023/06/16 09:46:49;;;;;;;0.10;0.10;;;;;;;;;;5088743;27;20074;-48
2023/06/16 09:49:20;;;;;;;0.10;0.10;;;;;;;;;;5095399;27;20144;-47
2023/06/16 09:51:50;;;;;;;0.10;0.10;;;;;;;;;;5094012;27;20058;-51
2023/06/16 09:54:16;;;;;;;0.10;0.10;;;;;;;;;;5094549;27;20039;-49
2023/06/16 09:56:43;;;;;;;0.10;0.10;;;;;;;;;;5117549;27;20528;-48
2023/06/16 09:59:08;;;;;;;0.10;0.10;;;;;;;;;;5119308;27;20038;-52
2023/06/16 10:01:34;;;;;;;0.10;0.10;;;;;;;;;;5114653;27;20103;-49
2023/06/16 10:04:00;;;;;;;0.10;0.10;;;;;;;;;;5119592;27;20467;-51
2023/06/16 10:06:28;;;;;;;0.10;0.10;;;;;;;;;;5095109;27;20082;-49
2023/06/16 10:08:54;;;;;;;0.10;0.10;;;;;;;;;;5118959;27;20097;-48
2023/06/16 10:11:20;;;;;;;0.10;0.10;;;;;;;;;;5124655;27;20280;-51
2023/06/16 10:13:50;;;;;;;0.10;0.10;;;;;;;;;;5121532;27;20058;-49
2023/06/16 10:16:16;;;;;;;0.10;0.10;;;;;;;;;;5110675;27;20039;-47
2023/06/16 10:18:42;;;;;;;0.10;0.10;;;;;;;;;;5111622;27;20057;-51
2023/06/16 10:21:09;;;;;;;0.10;0.10;;;;;;;;;;5116989;27;20065;-49
2023/06/16 10:23:35;;;;;;;0.10;0.10;;;;;;;;;;5120269;27;20054;-49
2023/06/16 10:26:01;;;;;;;0.10;0.10;;;;;;;;;;5122179;27;20058;-50
2023/06/16 10:28:27;;;;;;;0.10;0.10;;;;;;;;;;5119384;27;20103;-50
2023/06/16 10:30:53;;;;;;;0.20;0.20;;;;;;;;;;5114449;27;20410;-48
2023/06/16 10:33:22;;;;;;;0.10;0.10;;;;;;;;;;5118259;27;20045;-52
2023/06/16 10:35:50;;;;;;;0.10;0.10;;;;;;;;;;5117096;27;20553;-52
2023/06/16 10:38:15;;;;;;;0.10;0.10;;;;;;;;;;5112168;27;20735;-49
2023/06/16 10:40:41;;;;;;;0.10;0.10;;;;;;;;;;5118144;27;20437;-52
2023/06/16 10:43:10;;;;;;;0.17;0.17;;;;;;;;;;5113133;27;20131;-47
2023/06/16 10:45:39;;;;;;;0.10;0.10;;;;;;;;;;5111251;27;20094;-48
2023/06/16 10:48:10;;;;;;;0.10;0.10;;;;;;;;;;5116116;27;20050;-50
2023/06/16 10:53:14;;;;;;;0.10;0.10;;;;;;;;;;5149203;27;20729;-49
2023/06/16 10:55:42;;;;;;;0.10;0.10;;;;;;;;;;5138469;27;20035;-51
2023/06/16 11:00:57;;;;;;;0.10;0.10;;;;;;;;;;5167676;27;20204;-49
2023/06/16 11:03:27;;;;;;;0.10;0.10;;;;;;;;;;5143332;27;20089;-49
2023/06/16 11:05:58;;;;;;;0.10;0.10;;;;;;;;;;5129233;27;20034;-49
2023/06/16 11:08:24;;;;;;;0.10;0.10;;;;;;;;;;5135769;27;20325;-47
2023/06/16 11:10:50;;;;;;;0.10;0.10;;;;;;;;;;5141150;27;20157;-48
2023/06/16 11:13:17;;;;;;;0.10;0.10;;;;;;;;;;5139149;27;20054;-50
2023/06/16 11:15:43;;;;;;;0.10;0.10;;;;;;;;;;5139119;27;20035;-51
2023/06/16 11:18:08;;;;;;;0.10;0.10;;;;;;;;;;5141535;27;20601;-49
2023/06/16 11:20:35;;;;;;;0.10;0.10;;;;;;;;;;5143255;27;20039;-49
2023/06/16 11:23:02;;;;;;;0.10;0.10;;;;;;;;;;5136609;27;20039;-50
2023/06/16 11:25:28;;;;;;;0.10;0.10;;;;;;;;;;5135504;27;20051;-47
2023/06/16 11:27:54;;;;;;;0.10;0.10;;;;;;;;;;5137995;27;20126;-47
2023/06/16 11:30:20;;;;;;;0.10;0.10;;;;;;;;;;5136950;27;20085;-47
2023/06/16 11:32:47;;;;;;;0.10;0.10;;;;;;;;;;5117454;27;20212;-48
2023/06/16 11:35:13;;;;;;;0.10;0.10;;;;;;;;;;5137376;27;20039;-50
2023/06/16 11:37:39;;;;;;;0.17;0.17;;;;;;;;;;5139384;27;20411;-51
2023/06/16 11:40:05;;;;;;;0.10;0.10;;;;;;;;;;5145415;27;20043;-49
2023/06/16 11:42:32;;;;;;;0.10;0.10;;;;;;;;;;5138599;27;20069;-52
2023/06/16 11:44:58;;;;;;;0.10;0.10;;;;;;;;;;5127418;27;20102;-51
2023/06/16 11:47:23;;;;;;;0.10;0.10;;;;;;;;;;5145097;27;20571;-49
2023/06/16 11:49:49;;;;;;;0.10;0.10;;;;;;;;;;5140666;27;20054;-49
2023/06/16 11:52:15;;;;;;;0.10;0.10;;;;;;;;;;5140102;27;20049;-49
2023/06/16 11:54:40;;;;;;;0.10;0.10;;;;;;;;;;5136032;27;20472;-48
2023/06/16 11:57:06;;;;;;;0.10;0.10;;;;;;;;;;5137574;27;20039;-49
2023/06/16 11:59:32;;;;;;;0.20;0.20;;;;;;;;;;5140440;27;20125;-47
2023/06/16 12:01:58;;;;;;;0.10;0.10;;;;;;;;;;5137621;27;20074;-45
2023/06/16 12:04:25;;;;;;;0.10;0.10;;;;;;;;;;5114792;27;20582;-49
2023/06/16 12:06:50;;;;;;;0.10;0.10;;;;;;;;;;5141718;27;20042;-48
2023/06/16 12:09:19;;;;;;;0.10;0.10;;;;;;;;;;5122752;27;20043;-49
2023/06/16 12:11:46;;;;;;;0.10;0.10;;;;;;;;;;5127347;27;20544;-48
2023/06/16 12:14:20;;;;;;;0.10;0.10;;;;;;;;;;5102151;27;20066;-46
2023/06/16 12:16:47;;;;;;;0.13;0.13;;;;;;;;;;5107133;27;20049;-50
2023/06/16 12:19:17;;;;;;;0.10;0.10;;;;;;;;;;5115569;27;20051;-48
2023/06/16 12:21:43;;;;;;;0.10;0.10;;;;;;;;;;5122637;27;20074;-47
2023/06/16 12:24:09;;;;;;;0.10;0.10;;;;;;;;;;5122137;27;20194;-47
2023/06/16 12:26:43;;;;;;;0.10;0.10;;;;;;;;;;5132536;27;20043;-47
2023/06/16 12:29:10;;;;;;;0.10;0.10;;;;;;;;;;5121524;27;20050;-48
2023/06/16 12:31:36;;;;;;;0.10;0.10;;;;;;;;;;5121490;27;20054;-54
2023/06/16 12:34:02;;;;;;;0.10;0.10;;;;;;;;;;5128914;27;20066;-47
2023/06/16 12:36:27;;;;;;;0.10;0.10;;;;;;;;;;5123229;27;20066;-51
2023/06/16 12:38:55;;;;;;;0.10;0.10;;;;;;;;;;5124274;27;20082;-47
2023/06/16 12:41:21;;;;;;;0.10;0.10;;;;;;;;;;5126068;27;20706;-49
2023/06/16 12:43:50;;;;;;;0.10;0.10;;;;;;;;;;5130261;27;20338;-50
2023/06/16 12:46:16;;;;;;;0.10;0.10;;;;;;;;;;5131607;27;20043;-51
2023/06/16 12:48:42;;;;;;;0.20;0.20;;;;;;;;;;5118399;27;20427;-49
2023/06/16 12:51:08;;;;;;;0.10;0.10;;;;;;;;;;5121261;27;20174;-49
2023/06/16 12:53:41;;;;;;;0.10;0.10;;;;;;;;;;5121404;27;20047;-48
2023/06/16 12:56:09;;;;;;;0.10;0.10;;;;;;;;;;5124118;27;20185;-49
2023/06/16 12:58:35;;;;;;;0.10;0.10;;;;;;;;;;5125057;27;20510;-50
2023/06/16 13:01:01;;;;;;;0.10;0.10;;;;;;;;;;5122528;27;20595;-49
2023/06/16 13:03:26;;;;;;;0.10;0.10;;;;;;;;;;5115624;27;20043;-47
2023/06/16 13:05:52;;;;;;;0.10;0.10;;;;;;;;;;5131214;27;20211;-49
2023/06/16 13:08:18;;;;;;;0.30;0.30;;;;;;;;;;5124721;27;20500;-48
2023/06/16 13:10:43;;;;;;;0.10;0.10;;;;;;;;;;5128786;27;20051;-49
2023/06/16 13:13:09;;;;;;;0.10;0.10;;;;;;;;;;5129349;27;20050;-51
2023/06/16 13:15:34;;;;;;;0.10;0.10;;;;;;;;;;5121275;27;20047;-47
2023/06/16 13:18:00;;;;;;;0.10;0.10;;;;;;;;;;5125183;27;20062;-49
2023/06/16 13:20:25;;;;;;;0.10;0.10;;;;;;;;;;5110491;27;20189;-49
2023/06/16 13:22:51;;;;;;;0.10;0.10;;;;;;;;;;5127891;27;20072;-47
2023/06/16 13:25:16;;;;;;;0.10;0.10;;;;;;;;;;5118237;27;20047;-48
2023/06/16 13:27:42;;;;;;;0.10;0.10;;;;;;;;;;5119795;27;20046;-50
2023/06/16 13:30:08;;;;;;;0.10;0.10;;;;;;;;;;5132097;27;20505;-48
2023/06/16 13:32:33;;;;;;;0.10;0.10;;;;;;;;;;5124650;27;20062;-51
2023/06/16 13:34:59;;;;;;;0.10;0.10;;;;;;;;;;5127473;27;20171;-47
2023/06/16 13:37:24;;;;;;;0.10;0.10;;;;;;;;;;5128208;27;20049;-50
2023/06/16 13:39:50;;;;;;;0.13;0.13;;;;;;;;;;5131335;27;20086;-47
2023/06/16 13:42:16;;;;;;;0.10;0.10;;;;;;;;;;5126460;27;20063;-48
2023/06/16 13:44:41;;;;;;;0.17;0.17;;;;;;;;;;5130966;27;20062;-47
2023/06/16 13:47:07;;;;;;;0.10;0.10;;;;;;;;;;5127165;27;20035;-47
2023/06/16 13:49:33;;;;;;;0.10;0.10;;;;;;;;;;5125313;27;20344;-48
2023/06/16 13:51:58;;;;;;;0.10;0.10;;;;;;;;;;5130769;27;20081;-49
2023/06/16 13:54:24;;;;;;;0.10;0.10;;;;;;;;;;5127967;27;20557;-50
2023/06/16 13:56:50;;;;;;;0.10;0.10;;;;;;;;;;5120863;27;20059;-50
2023/06/16 13:59:15;;;;;;;0.32;0.20;;;;;;;;;;5130002;27;20103;-51
2023/06/16 14:01:41;;;;;;;0.10;0.10;;;;;;;;;;5128471;27;20046;-48
2023/06/16 14:04:06;;;;;;;0.10;0.10;;;;;;;;;;5128151;27;20039;-48
2023/06/16 14:06:32;;;;;;;0.10;0.10;;;;;;;;;;5114688;27;20042;-46
2023/06/16 14:08:59;;;;;;;0.10;0.10;;;;;;;;;;5128446;27;20129;-48
2023/06/16 14:11:24;;;;;;;0.10;0.10;;;;;;;;;;5124372;27;20421;-47
2023/06/16 14:13:50;;;;;;;0.10;0.10;;;;;;;;;;5115404;27;20242;-48
2023/06/16 14:16:16;;;;;;;0.10;0.10;;;;;;;;;;5103615;27;20057;-48
2023/06/16 14:18:41;;;;;;;0.10;0.10;;;;;;;;;;5135472;27;20043;-48
2023/06/16 14:21:07;;;;;;;0.10;0.10;;;;;;;;;;5122539;27;20055;-47
2023/06/16 14:23:32;;;;;;;0.20;0.20;;;;;;;;;;5115498;27;20046;-48
2023/06/16 14:25:58;;;;;;;0.10;0.10;;;;;;;;;;5127135;27;20451;-47
2023/06/16 14:28:23;;;;;;;0.10;0.10;;;;;;;;;;5131307;27;20043;-47
2023/06/16 14:30:49;;;;;;;0.10;0.10;;;;;;;;;;5131720;27;20137;-50
2023/06/16 14:33:15;;;;;;;0.10;0.10;;;;;;;;;;5117640;27;20091;-47
2023/06/16 14:35:41;;;;;;;0.10;0.10;;;;;;;;;;5107863;27;20133;-47
2023/06/16 14:38:06;;;;;;;0.10;0.10;;;;;;;;;;5115811;27;20070;-48
2023/06/16 14:40:32;;;;;;;0.10;0.10;;;;;;;;;;5101398;27;20035;-48
2023/06/16 14:42:58;;;;;;;0.10;0.10;;;;;;;;;;5116415;27;20066;-51